sensor_id;sensor_type;location;lat;lon;timestamp;P1;durP1;ratioP1;P2;durP2;ratioP2
68256;SDS011;55069;51.568;4.656;2023-02-13T00:01:02;50.20;;;22.55;;
68256;SDS011;55069;51.568;4.656;2023-02-13T00:03:28;55.72;;;24.05;;
68256;SDS011;55069;51.568;4.656;2023-02-13T00:05:53;52.43;;;24.43;;
68256;SDS011;55069;51.568;4.656;2023-02-13T00:08:19;49.13;;;22.87;;
68256;SDS011;55069;51.568;4.656;2023-02-13T00:10:45;53.43;;;24.73;;
68256;SDS011;55069;51.568;4.656;2023-02-13T00:13:11;51.70;;;24.33;;
68256;SDS011;55069;51.568;4.656;2023-02-13T00:15:37;48.47;;;23.20;;
68256;SDS011;55069;51.568;4.656;2023-02-13T00:18:03;56.80;;;24.00;;
68256;SDS011;55069;51.568;4.656;2023-02-13T00:20:28;46.22;;;22.05;;
68256;SDS011;55069;51.568;4.656;2023-02-13T00:22:54;50.55;;;23.13;;
68256;SDS011;55069;51.568;4.656;2023-02-13T00:25:20;53.40;;;23.33;;
68256;SDS011;55069;51.568;4.656;2023-02-13T00:27:45;54.50;;;24.47;;
68256;SDS011;55069;51.568;4.656;2023-02-13T00:30:11;51.60;;;23.17;;
68256;SDS011;55069;51.568;4.656;2023-02-13T00:32:37;59.03;;;24.17;;
68256;SDS011;55069;51.568;4.656;2023-02-13T00:35:03;55.15;;;24.52;;
68256;SDS011;55069;51.568;4.656;2023-02-13T00:37:29;53.95;;;23.92;;
68256;SDS011;55069;51.568;4.656;2023-02-13T00:39:54;55.73;;;23.10;;
68256;SDS011;55069;51.568;4.656;2023-02-13T00:42:20;55.17;;;24.17;;
68256;SDS011;55069;51.568;4.656;2023-02-13T00:44:50;55.17;;;24.05;;
68256;SDS011;55069;51.568;4.656;2023-02-13T00:47:17;58.05;;;24.63;;
68256;SDS011;55069;51.568;4.656;2023-02-13T00:49:43;51.70;;;24.45;;
68256;SDS011;55069;51.568;4.656;2023-02-13T00:52:08;51.17;;;23.47;;
68256;SDS011;55069;51.568;4.656;2023-02-13T00:54:34;55.50;;;25.07;;
68256;SDS011;55069;51.568;4.656;2023-02-13T00:56:59;58.08;;;26.42;;
68256;SDS011;55069;51.568;4.656;2023-02-13T00:59:25;52.50;;;24.07;;
68256;SDS011;55069;51.568;4.656;2023-02-13T01:01:50;53.47;;;24.80;;
68256;SDS011;55069;51.568;4.656;2023-02-13T01:04:16;56.20;;;23.33;;
68256;SDS011;55069;51.568;4.656;2023-02-13T01:06:41;55.15;;;24.25;;
68256;SDS011;55069;51.568;4.656;2023-02-13T01:09:07;55.10;;;23.93;;
68256;SDS011;55069;51.568;4.656;2023-02-13T01:11:34;56.78;;;24.55;;
68256;SDS011;55069;51.568;4.656;2023-02-13T01:14:00;57.53;;;25.87;;
68256;SDS011;55069;51.568;4.656;2023-02-13T01:16:25;49.60;;;23.75;;
68256;SDS011;55069;51.568;4.656;2023-02-13T01:18:51;53.77;;;23.03;;
68256;SDS011;55069;51.568;4.656;2023-02-13T01:21:18;53.35;;;24.20;;
68256;SDS011;55069;51.568;4.656;2023-02-13T01:23:45;53.57;;;23.47;;
68256;SDS011;55069;51.568;4.656;2023-02-13T01:26:13;54.88;;;23.42;;
68256;SDS011;55069;51.568;4.656;2023-02-13T01:28:42;60.70;;;25.42;;
68256;SDS011;55069;51.568;4.656;2023-02-13T01:31:09;53.15;;;24.40;;
68256;SDS011;55069;51.568;4.656;2023-02-13T01:33:34;53.80;;;23.93;;
68256;SDS011;55069;51.568;4.656;2023-02-13T01:36:04;50.87;;;24.07;;
68256;SDS011;55069;51.568;4.656;2023-02-13T01:38:35;49.67;;;23.00;;
68256;SDS011;55069;51.568;4.656;2023-02-13T01:41:01;47.88;;;23.30;;
68256;SDS011;55069;51.568;4.656;2023-02-13T01:46:21;51.58;;;22.58;;
68256;SDS011;55069;51.568;4.656;2023-02-13T01:49:03;55.65;;;24.02;;
68256;SDS011;55069;51.568;4.656;2023-02-13T01:51:35;57.00;;;23.67;;
68256;SDS011;55069;51.568;4.656;2023-02-13T01:54:07;52.75;;;23.67;;
68256;SDS011;55069;51.568;4.656;2023-02-13T01:56:41;53.30;;;23.70;;
68256;SDS011;55069;51.568;4.656;2023-02-13T01:59:27;59.17;;;24.48;;
68256;SDS011;55069;51.568;4.656;2023-02-13T02:01:55;61.10;;;25.10;;
68256;SDS011;55069;51.568;4.656;2023-02-13T02:04:27;55.28;;;24.45;;
68256;SDS011;55069;51.568;4.656;2023-02-13T02:06:57;57.53;;;22.55;;
68256;SDS011;55069;51.568;4.656;2023-02-13T02:09:31;59.37;;;24.93;;
68256;SDS011;55069;51.568;4.656;2023-02-13T02:12:03;54.22;;;24.60;;
68256;SDS011;55069;51.568;4.656;2023-02-13T02:14:36;61.50;;;26.75;;
68256;SDS011;55069;51.568;4.656;2023-02-13T02:17:05;60.38;;;24.17;;
68256;SDS011;55069;51.568;4.656;2023-02-13T02:19:41;50.67;;;25.35;;
68256;SDS011;55069;51.568;4.656;2023-02-13T02:36:33;58.67;;;24.67;;
68256;SDS011;55069;51.568;4.656;2023-02-13T02:39:14;56.38;;;24.55;;
68256;SDS011;55069;51.568;4.656;2023-02-13T02:47:08;66.05;;;25.45;;
68256;SDS011;55069;51.568;4.656;2023-02-13T02:50:01;59.13;;;25.10;;
68256;SDS011;55069;51.568;4.656;2023-02-13T02:52:42;56.40;;;25.42;;
68256;SDS011;55069;51.568;4.656;2023-02-13T02:55:40;55.17;;;25.03;;
68256;SDS011;55069;51.568;4.656;2023-02-13T03:01:19;46.17;;;21.42;;
68256;SDS011;55069;51.568;4.656;2023-02-13T03:04:11;48.15;;;21.27;;
68256;SDS011;55069;51.568;4.656;2023-02-13T03:07:05;52.75;;;24.25;;
68256;SDS011;55069;51.568;4.656;2023-02-13T03:09:38;49.73;;;22.80;;
68256;SDS011;55069;51.568;4.656;2023-02-13T03:12:28;50.55;;;19.77;;
68256;SDS011;55069;51.568;4.656;2023-02-13T03:15:22;54.40;;;22.73;;
68256;SDS011;55069;51.568;4.656;2023-02-13T03:17:49;51.63;;;21.05;;
68256;SDS011;55069;51.568;4.656;2023-02-13T03:20:48;55.72;;;23.58;;
68256;SDS011;55069;51.568;4.656;2023-02-13T03:23:59;57.63;;;23.30;;
68256;SDS011;55069;51.568;4.656;2023-02-13T03:26:40;51.88;;;21.90;;
68256;SDS011;55069;51.568;4.656;2023-02-13T03:32:03;58.92;;;24.08;;
68256;SDS011;55069;51.568;4.656;2023-02-13T03:34:37;55.08;;;22.30;;
68256;SDS011;55069;51.568;4.656;2023-02-13T03:37:35;60.23;;;23.13;;
68256;SDS011;55069;51.568;4.656;2023-02-13T03:43:07;61.00;;;23.00;;
68256;SDS011;55069;51.568;4.656;2023-02-13T03:45:36;61.67;;;24.42;;
68256;SDS011;55069;51.568;4.656;2023-02-13T03:48:34;63.60;;;24.65;;
68256;SDS011;55069;51.568;4.656;2023-02-13T03:53:55;56.25;;;22.65;;
68256;SDS011;55069;51.568;4.656;2023-02-13T03:56:29;62.33;;;22.63;;
68256;SDS011;55069;51.568;4.656;2023-02-13T03:59:21;63.20;;;24.75;;
68256;SDS011;55069;51.568;4.656;2023-02-13T04:01:54;69.18;;;24.00;;
68256;SDS011;55069;51.568;4.656;2023-02-13T04:09:32;59.30;;;21.35;;
68256;SDS011;55069;51.568;4.656;2023-02-13T04:12:05;62.75;;;23.25;;
68256;SDS011;55069;51.568;4.656;2023-02-13T04:14:39;60.95;;;22.50;;
68256;SDS011;55069;51.568;4.656;2023-02-13T04:17:16;59.73;;;23.13;;
68256;SDS011;55069;51.568;4.656;2023-02-13T04:20:02;62.78;;;23.85;;
68256;SDS011;55069;51.568;4.656;2023-02-13T04:22:30;63.03;;;23.95;;
68256;SDS011;55069;51.568;4.656;2023-02-13T04:24:55;53.70;;;22.67;;
68256;SDS011;55069;51.568;4.656;2023-02-13T04:27:21;59.20;;;22.17;;
68256;SDS011;55069;51.568;4.656;2023-02-13T04:29:50;68.95;;;25.38;;
68256;SDS011;55069;51.568;4.656;2023-02-13T04:32:15;69.33;;;25.37;;
68256;SDS011;55069;51.568;4.656;2023-02-13T04:34:42;62.75;;;24.08;;
68256;SDS011;55069;51.568;4.656;2023-02-13T04:37:08;61.50;;;23.83;;
68256;SDS011;55069;51.568;4.656;2023-02-13T04:39:33;62.28;;;23.08;;
68256;SDS011;55069;51.568;4.656;2023-02-13T04:41:59;63.63;;;24.10;;
68256;SDS011;55069;51.568;4.656;2023-02-13T04:44:24;66.43;;;23.70;;
68256;SDS011;55069;51.568;4.656;2023-02-13T04:46:50;69.75;;;24.73;;
68256;SDS011;55069;51.568;4.656;2023-02-13T04:49:15;63.13;;;23.23;;
68256;SDS011;55069;51.568;4.656;2023-02-13T04:51:41;66.57;;;24.17;;
68256;SDS011;55069;51.568;4.656;2023-02-13T04:54:07;66.03;;;23.98;;
68256;SDS011;55069;51.568;4.656;2023-02-13T04:56:32;63.23;;;23.93;;
68256;SDS011;55069;51.568;4.656;2023-02-13T04:58:58;70.53;;;23.70;;
68256;SDS011;55069;51.568;4.656;2023-02-13T05:01:23;63.20;;;24.70;;
68256;SDS011;55069;51.568;4.656;2023-02-13T05:03:49;70.60;;;23.63;;
68256;SDS011;55069;51.568;4.656;2023-02-13T05:06:14;70.60;;;26.27;;
68256;SDS011;55069;51.568;4.656;2023-02-13T05:08:40;65.57;;;24.53;;
68256;SDS011;55069;51.568;4.656;2023-02-13T05:11:05;61.28;;;22.80;;
68256;SDS011;55069;51.568;4.656;2023-02-13T05:13:31;57.55;;;21.63;;
68256;SDS011;55069;51.568;4.656;2023-02-13T05:15:57;56.63;;;21.73;;
68256;SDS011;55069;51.568;4.656;2023-02-13T05:18:22;62.67;;;22.70;;
68256;SDS011;55069;51.568;4.656;2023-02-13T05:20:49;75.40;;;23.80;;
68256;SDS011;55069;51.568;4.656;2023-02-13T05:23:35;67.95;;;24.13;;
68256;SDS011;55069;51.568;4.656;2023-02-13T05:26:00;68.50;;;22.77;;
68256;SDS011;55069;51.568;4.656;2023-02-13T05:28:26;71.07;;;24.37;;
68256;SDS011;55069;51.568;4.656;2023-02-13T05:31:10;69.13;;;25.25;;
68256;SDS011;55069;51.568;4.656;2023-02-13T05:33:36;65.43;;;24.77;;
68256;SDS011;55069;51.568;4.656;2023-02-13T05:36:02;67.70;;;26.15;;
68256;SDS011;55069;51.568;4.656;2023-02-13T05:38:27;70.07;;;24.47;;
68256;SDS011;55069;51.568;4.656;2023-02-13T05:40:53;68.73;;;24.93;;
68256;SDS011;55069;51.568;4.656;2023-02-13T05:43:18;65.65;;;24.48;;
68256;SDS011;55069;51.568;4.656;2023-02-13T05:45:44;68.53;;;24.20;;
68256;SDS011;55069;51.568;4.656;2023-02-13T05:48:10;63.15;;;24.70;;
68256;SDS011;55069;51.568;4.656;2023-02-13T05:50:36;61.37;;;23.07;;
68256;SDS011;55069;51.568;4.656;2023-02-13T05:53:02;68.35;;;24.02;;
68256;SDS011;55069;51.568;4.656;2023-02-13T05:55:28;72.67;;;23.77;;
68256;SDS011;55069;51.568;4.656;2023-02-13T05:57:56;69.07;;;23.85;;
68256;SDS011;55069;51.568;4.656;2023-02-13T06:00:22;72.00;;;24.70;;
68256;SDS011;55069;51.568;4.656;2023-02-13T06:02:48;72.20;;;25.23;;
68256;SDS011;55069;51.568;4.656;2023-02-13T06:05:14;73.77;;;27.10;;
68256;SDS011;55069;51.568;4.656;2023-02-13T06:07:39;64.47;;;24.67;;
68256;SDS011;55069;51.568;4.656;2023-02-13T06:10:05;73.23;;;26.87;;
68256;SDS011;55069;51.568;4.656;2023-02-13T06:12:31;78.00;;;26.48;;
68256;SDS011;55069;51.568;4.656;2023-02-13T06:14:57;79.03;;;26.70;;
68256;SDS011;55069;51.568;4.656;2023-02-13T06:17:22;69.22;;;26.15;;
68256;SDS011;55069;51.568;4.656;2023-02-13T06:19:48;73.73;;;27.03;;
68256;SDS011;55069;51.568;4.656;2023-02-13T06:22:13;78.87;;;28.10;;
68256;SDS011;55069;51.568;4.656;2023-02-13T06:24:39;69.53;;;24.90;;
68256;SDS011;55069;51.568;4.656;2023-02-13T06:27:04;70.03;;;25.52;;
68256;SDS011;55069;51.568;4.656;2023-02-13T06:29:30;77.13;;;27.83;;
68256;SDS011;55069;51.568;4.656;2023-02-13T06:31:57;76.78;;;26.15;;
68256;SDS011;55069;51.568;4.656;2023-02-13T06:34:22;65.03;;;25.20;;
68256;SDS011;55069;51.568;4.656;2023-02-13T06:36:48;70.53;;;25.20;;
68256;SDS011;55069;51.568;4.656;2023-02-13T06:39:13;68.88;;;24.90;;
68256;SDS011;55069;51.568;4.656;2023-02-13T06:41:39;68.20;;;26.63;;
68256;SDS011;55069;51.568;4.656;2023-02-13T06:44:04;67.87;;;25.57;;
68256;SDS011;55069;51.568;4.656;2023-02-13T06:46:31;81.25;;;27.77;;
68256;SDS011;55069;51.568;4.656;2023-02-13T06:48:56;82.80;;;28.40;;
68256;SDS011;55069;51.568;4.656;2023-02-13T06:51:22;84.13;;;30.13;;
68256;SDS011;55069;51.568;4.656;2023-02-13T06:53:47;91.97;;;31.20;;
68256;SDS011;55069;51.568;4.656;2023-02-13T06:56:13;86.93;;;30.33;;
68256;SDS011;55069;51.568;4.656;2023-02-13T06:58:38;106.57;;;30.57;;
68256;SDS011;55069;51.568;4.656;2023-02-13T07:01:04;130.43;;;31.17;;
68256;SDS011;55069;51.568;4.656;2023-02-13T07:03:29;201.68;;;32.13;;
68256;SDS011;55069;51.568;4.656;2023-02-13T07:05:55;211.93;;;29.60;;
68256;SDS011;55069;51.568;4.656;2023-02-13T07:08:20;332.10;;;32.27;;
68256;SDS011;55069;51.568;4.656;2023-02-13T07:10:46;389.67;;;30.67;;
68256;SDS011;55069;51.568;4.656;2023-02-13T07:13:12;322.20;;;30.13;;
68256;SDS011;55069;51.568;4.656;2023-02-13T07:15:38;257.27;;;29.38;;
68256;SDS011;55069;51.568;4.656;2023-02-13T07:18:04;250.37;;;30.10;;
68256;SDS011;55069;51.568;4.656;2023-02-13T07:20:30;283.77;;;29.50;;
68256;SDS011;55069;51.568;4.656;2023-02-13T07:22:59;329.73;;;29.30;;
68256;SDS011;55069;51.568;4.656;2023-02-13T07:25:26;251.13;;;29.08;;
68256;SDS011;55069;51.568;4.656;2023-02-13T07:27:52;395.27;;;34.17;;
68256;SDS011;55069;51.568;4.656;2023-02-13T07:30:18;429.90;;;32.10;;
68256;SDS011;55069;51.568;4.656;2023-02-13T07:32:44;305.52;;;29.75;;
68256;SDS011;55069;51.568;4.656;2023-02-13T07:35:10;283.23;;;30.30;;
68256;SDS011;55069;51.568;4.656;2023-02-13T07:37:35;300.85;;;31.67;;
68256;SDS011;55069;51.568;4.656;2023-02-13T07:40:01;214.50;;;29.13;;
68256;SDS011;55069;51.568;4.656;2023-02-13T07:42:28;231.07;;;27.77;;
68256;SDS011;55069;51.568;4.656;2023-02-13T07:44:57;138.17;;;26.00;;
68256;SDS011;55069;51.568;4.656;2023-02-13T07:47:22;184.85;;;29.38;;
68256;SDS011;55069;51.568;4.656;2023-02-13T07:49:48;219.57;;;29.37;;
68256;SDS011;55069;51.568;4.656;2023-02-13T07:52:13;138.80;;;28.53;;
68256;SDS011;55069;51.568;4.656;2023-02-13T07:54:39;169.05;;;29.45;;
68256;SDS011;55069;51.568;4.656;2023-02-13T07:57:15;212.10;;;29.30;;
68256;SDS011;55069;51.568;4.656;2023-02-13T07:59:41;258.58;;;28.25;;
68256;SDS011;55069;51.568;4.656;2023-02-13T08:02:10;139.63;;;26.90;;
68256;SDS011;55069;51.568;4.656;2023-02-13T08:04:37;122.63;;;27.10;;
68256;SDS011;55069;51.568;4.656;2023-02-13T08:07:03;124.68;;;27.83;;
68256;SDS011;55069;51.568;4.656;2023-02-13T08:09:28;148.93;;;28.03;;
68256;SDS011;55069;51.568;4.656;2023-02-13T08:12:12;258.02;;;28.67;;
68256;SDS011;55069;51.568;4.656;2023-02-13T08:14:38;124.60;;;28.53;;
68256;SDS011;55069;51.568;4.656;2023-02-13T08:17:04;147.47;;;26.70;;
68256;SDS011;55069;51.568;4.656;2023-02-13T08:19:29;129.77;;;26.10;;
68256;SDS011;55069;51.568;4.656;2023-02-13T08:21:55;98.43;;;25.97;;
68256;SDS011;55069;51.568;4.656;2023-02-13T08:24:20;94.50;;;25.65;;
68256;SDS011;55069;51.568;4.656;2023-02-13T08:26:46;189.90;;;28.07;;
68256;SDS011;55069;51.568;4.656;2023-02-13T08:29:12;189.07;;;28.03;;
68256;SDS011;55069;51.568;4.656;2023-02-13T08:31:37;158.98;;;25.98;;
68256;SDS011;55069;51.568;4.656;2023-02-13T08:34:03;96.07;;;25.00;;
68256;SDS011;55069;51.568;4.656;2023-02-13T08:36:29;107.17;;;25.03;;
68256;SDS011;55069;51.568;4.656;2023-02-13T08:38:54;86.15;;;26.10;;
68256;SDS011;55069;51.568;4.656;2023-02-13T08:41:20;121.10;;;26.03;;
68256;SDS011;55069;51.568;4.656;2023-02-13T08:43:46;79.38;;;27.17;;
68256;SDS011;55069;51.568;4.656;2023-02-13T08:46:13;83.55;;;24.90;;
68256;SDS011;55069;51.568;4.656;2023-02-13T08:48:38;84.53;;;25.90;;
68256;SDS011;55069;51.568;4.656;2023-02-13T08:51:05;69.03;;;25.50;;
68256;SDS011;55069;51.568;4.656;2023-02-13T08:53:32;70.68;;;26.70;;
68256;SDS011;55069;51.568;4.656;2023-02-13T08:55:58;73.15;;;25.08;;
68256;SDS011;55069;51.568;4.656;2023-02-13T08:58:23;76.13;;;25.03;;
68256;SDS011;55069;51.568;4.656;2023-02-13T09:00:49;110.00;;;25.75;;
68256;SDS011;55069;51.568;4.656;2023-02-13T09:03:15;83.77;;;26.43;;
68256;SDS011;55069;51.568;4.656;2023-02-13T09:05:40;69.82;;;25.45;;
68256;SDS011;55069;51.568;4.656;2023-02-13T09:08:06;90.97;;;25.33;;
68256;SDS011;55069;51.568;4.656;2023-02-13T09:10:32;76.45;;;25.10;;
68256;SDS011;55069;51.568;4.656;2023-02-13T09:12:58;65.70;;;26.02;;
68256;SDS011;55069;51.568;4.656;2023-02-13T09:15:25;80.77;;;27.70;;
68256;SDS011;55069;51.568;4.656;2023-02-13T09:17:51;79.97;;;26.08;;
68256;SDS011;55069;51.568;4.656;2023-02-13T09:20:17;59.00;;;25.40;;
68256;SDS011;55069;51.568;4.656;2023-02-13T09:22:42;100.37;;;26.40;;
68256;SDS011;55069;51.568;4.656;2023-02-13T09:25:08;56.28;;;24.95;;
68256;SDS011;55069;51.568;4.656;2023-02-13T09:27:34;59.93;;;25.70;;
68256;SDS011;55069;51.568;4.656;2023-02-13T09:30:01;60.10;;;25.73;;
68256;SDS011;55069;51.568;4.656;2023-02-13T09:32:27;56.85;;;25.35;;
68256;SDS011;55069;51.568;4.656;2023-02-13T09:34:53;57.92;;;27.58;;
68256;SDS011;55069;51.568;4.656;2023-02-13T09:37:18;51.38;;;25.05;;
68256;SDS011;55069;51.568;4.656;2023-02-13T09:39:44;44.87;;;23.93;;
68256;SDS011;55069;51.568;4.656;2023-02-13T09:42:20;48.03;;;24.43;;
68256;SDS011;55069;51.568;4.656;2023-02-13T09:44:49;46.85;;;23.83;;
68256;SDS011;55069;51.568;4.656;2023-02-13T09:50:00;43.22;;;21.63;;
68256;SDS011;55069;51.568;4.656;2023-02-13T09:52:38;42.55;;;22.83;;
68256;SDS011;55069;51.568;4.656;2023-02-13T09:55:15;42.67;;;22.57;;
68256;SDS011;55069;51.568;4.656;2023-02-13T09:57:49;51.08;;;22.88;;
68256;SDS011;55069;51.568;4.656;2023-02-13T10:00:33;42.55;;;22.60;;
68256;SDS011;55069;51.568;4.656;2023-02-13T10:08:37;47.80;;;22.97;;
68256;SDS011;55069;51.568;4.656;2023-02-13T10:16:26;47.67;;;24.20;;
68256;SDS011;55069;51.568;4.656;2023-02-13T10:19:04;49.20;;;24.92;;
68256;SDS011;55069;51.568;4.656;2023-02-13T10:21:37;44.43;;;23.77;;
68256;SDS011;55069;51.568;4.656;2023-02-13T10:27:22;48.95;;;23.00;;
68256;SDS011;55069;51.568;4.656;2023-02-13T10:29:51;41.03;;;22.10;;
68256;SDS011;55069;51.568;4.656;2023-02-13T10:35:02;40.57;;;20.87;;
68256;SDS011;55069;51.568;4.656;2023-02-13T10:37:35;40.47;;;22.33;;
68256;SDS011;55069;51.568;4.656;2023-02-13T10:40:04;36.97;;;20.63;;
68256;SDS011;55069;51.568;4.656;2023-02-13T10:42:45;42.08;;;21.05;;
68256;SDS011;55069;51.568;4.656;2023-02-13T10:45:39;36.20;;;20.98;;
68256;SDS011;55069;51.568;4.656;2023-02-13T10:54:48;32.97;;;18.60;;
68256;SDS011;55069;51.568;4.656;2023-02-13T11:03:01;31.75;;;18.65;;
68256;SDS011;55069;51.568;4.656;2023-02-13T11:05:31;34.60;;;19.27;;
68256;SDS011;55069;51.568;4.656;2023-02-13T11:08:01;33.35;;;19.25;;
68256;SDS011;55069;51.568;4.656;2023-02-13T11:10:27;32.10;;;18.87;;
68256;SDS011;55069;51.568;4.656;2023-02-13T11:12:53;31.80;;;19.00;;
68256;SDS011;55069;51.568;4.656;2023-02-13T11:15:24;33.17;;;19.05;;
68256;SDS011;55069;51.568;4.656;2023-02-13T11:17:52;34.50;;;18.55;;
68256;SDS011;55069;51.568;4.656;2023-02-13T11:20:22;33.27;;;17.87;;
68256;SDS011;55069;51.568;4.656;2023-02-13T11:22:50;33.75;;;17.58;;
68256;SDS011;55069;51.568;4.656;2023-02-13T11:25:20;32.40;;;17.58;;
68256;SDS011;55069;51.568;4.656;2023-02-13T11:27:49;31.33;;;16.60;;
68256;SDS011;55069;51.568;4.656;2023-02-13T11:30:33;29.23;;;17.10;;
68256;SDS011;55069;51.568;4.656;2023-02-13T11:33:01;33.63;;;18.13;;
68256;SDS011;55069;51.568;4.656;2023-02-13T11:35:30;30.88;;;16.67;;
68256;SDS011;55069;51.568;4.656;2023-02-13T11:40:45;35.50;;;18.50;;
68256;SDS011;55069;51.568;4.656;2023-02-13T11:43:18;31.17;;;17.10;;
68256;SDS011;55069;51.568;4.656;2023-02-13T11:45:59;34.63;;;17.05;;
68256;SDS011;55069;51.568;4.656;2023-02-13T11:48:39;30.83;;;16.98;;
68256;SDS011;55069;51.568;4.656;2023-02-13T11:51:07;28.85;;;15.40;;
68256;SDS011;55069;51.568;4.656;2023-02-13T11:53:36;30.63;;;16.93;;
68256;SDS011;55069;51.568;4.656;2023-02-13T11:58:32;32.47;;;16.87;;
68256;SDS011;55069;51.568;4.656;2023-02-13T12:06:41;31.08;;;16.15;;
68256;SDS011;55069;51.568;4.656;2023-02-13T12:09:23;26.52;;;14.40;;
68256;SDS011;55069;51.568;4.656;2023-02-13T12:11:52;31.23;;;14.30;;
68256;SDS011;55069;51.568;4.656;2023-02-13T12:14:23;19.63;;;11.77;;
68256;SDS011;55069;51.568;4.656;2023-02-13T12:16:56;20.17;;;11.73;;
68256;SDS011;55069;51.568;4.656;2023-02-13T12:35:56;19.40;;;12.07;;
68256;SDS011;55069;51.568;4.656;2023-02-13T12:55:17;18.92;;;12.85;;
68256;SDS011;55069;51.568;4.656;2023-02-13T13:00:46;20.23;;;13.00;;
68256;SDS011;55069;51.568;4.656;2023-02-13T13:12:07;18.33;;;11.67;;
68256;SDS011;55069;51.568;4.656;2023-02-13T13:20:28;18.48;;;11.88;;
68256;SDS011;55069;51.568;4.656;2023-02-13T13:25:47;18.20;;;12.43;;
68256;SDS011;55069;51.568;4.656;2023-02-13T13:28:22;19.45;;;11.50;;
68256;SDS011;55069;51.568;4.656;2023-02-13T13:30:50;18.00;;;11.35;;
68256;SDS011;55069;51.568;4.656;2023-02-13T13:33:18;17.08;;;10.65;;
68256;SDS011;55069;51.568;4.656;2023-02-13T13:41:35;17.85;;;10.57;;
68256;SDS011;55069;51.568;4.656;2023-02-13T13:50:11;15.30;;;10.30;;
68256;SDS011;55069;51.568;4.656;2023-02-13T13:53:04;16.43;;;10.87;;
68256;SDS011;55069;51.568;4.656;2023-02-13T14:03:39;19.65;;;9.88;;
68256;SDS011;55069;51.568;4.656;2023-02-13T14:06:08;17.03;;;10.37;;
68256;SDS011;55069;51.568;4.656;2023-02-13T14:11:04;22.33;;;11.13;;
68256;SDS011;55069;51.568;4.656;2023-02-13T14:13:34;18.52;;;9.40;;
68256;SDS011;55069;51.568;4.656;2023-02-13T14:16:02;18.55;;;10.52;;
68256;SDS011;55069;51.568;4.656;2023-02-13T14:18:29;16.17;;;10.65;;
68256;SDS011;55069;51.568;4.656;2023-02-13T14:20:59;16.50;;;10.00;;
68256;SDS011;55069;51.568;4.656;2023-02-13T14:23:37;17.93;;;11.00;;
68256;SDS011;55069;51.568;4.656;2023-02-13T14:28:40;18.47;;;10.93;;
68256;SDS011;55069;51.568;4.656;2023-02-13T14:31:27;15.95;;;10.18;;
68256;SDS011;55069;51.568;4.656;2023-02-13T14:36:33;17.10;;;10.60;;
68256;SDS011;55069;51.568;4.656;2023-02-13T14:39:06;16.70;;;10.32;;
68256;SDS011;55069;51.568;4.656;2023-02-13T14:44:20;16.30;;;10.82;;
68256;SDS011;55069;51.568;4.656;2023-02-13T14:46:53;15.77;;;9.98;;
68256;SDS011;55069;51.568;4.656;2023-02-13T14:49:23;18.42;;;10.55;;
68256;SDS011;55069;51.568;4.656;2023-02-13T14:51:56;18.35;;;9.90;;
68256;SDS011;55069;51.568;4.656;2023-02-13T14:57:22;15.02;;;10.13;;
68256;SDS011;55069;51.568;4.656;2023-02-13T14:59:58;17.33;;;10.15;;
68256;SDS011;55069;51.568;4.656;2023-02-13T15:02:35;17.13;;;10.85;;
68256;SDS011;55069;51.568;4.656;2023-02-13T15:05:12;17.00;;;11.18;;
68256;SDS011;55069;51.568;4.656;2023-02-13T15:07:44;17.27;;;10.57;;
68256;SDS011;55069;51.568;4.656;2023-02-13T15:10:26;15.38;;;10.60;;
68256;SDS011;55069;51.568;4.656;2023-02-13T15:12:57;18.17;;;11.65;;
68256;SDS011;55069;51.568;4.656;2023-02-13T15:15:27;17.08;;;11.73;;
68256;SDS011;55069;51.568;4.656;2023-02-13T15:17:59;17.42;;;11.85;;
68256;SDS011;55069;51.568;4.656;2023-02-13T15:20:29;19.07;;;11.93;;
68256;SDS011;55069;51.568;4.656;2023-02-13T15:22:57;18.50;;;11.35;;
68256;SDS011;55069;51.568;4.656;2023-02-13T15:25:37;17.40;;;11.77;;
68256;SDS011;55069;51.568;4.656;2023-02-13T15:28:04;20.85;;;11.88;;
68256;SDS011;55069;51.568;4.656;2023-02-13T15:30:32;21.90;;;12.90;;
68256;SDS011;55069;51.568;4.656;2023-02-13T15:33:01;24.30;;;13.40;;
68256;SDS011;55069;51.568;4.656;2023-02-13T15:37:55;20.20;;;12.90;;
68256;SDS011;55069;51.568;4.656;2023-02-13T15:40:23;21.70;;;13.38;;
68256;SDS011;55069;51.568;4.656;2023-02-13T15:42:49;19.83;;;12.80;;
68256;SDS011;55069;51.568;4.656;2023-02-13T15:45:15;21.93;;;13.57;;
68256;SDS011;55069;51.568;4.656;2023-02-13T15:47:43;21.42;;;13.32;;
68256;SDS011;55069;51.568;4.656;2023-02-13T15:50:43;22.35;;;13.52;;
68256;SDS011;55069;51.568;4.656;2023-02-13T15:53:09;21.45;;;12.95;;
68256;SDS011;55069;51.568;4.656;2023-02-13T15:55:38;20.67;;;12.73;;
68256;SDS011;55069;51.568;4.656;2023-02-13T15:58:03;19.83;;;12.77;;
68256;SDS011;55069;51.568;4.656;2023-02-13T16:00:32;21.52;;;12.60;;
68256;SDS011;55069;51.568;4.656;2023-02-13T16:03:00;19.98;;;13.10;;
68256;SDS011;55069;51.568;4.656;2023-02-13T16:05:27;20.53;;;12.50;;
68256;SDS011;55069;51.568;4.656;2023-02-13T16:07:57;21.88;;;13.07;;
68256;SDS011;55069;51.568;4.656;2023-02-13T16:12:56;21.67;;;12.52;;
68256;SDS011;55069;51.568;4.656;2023-02-13T16:15:27;23.92;;;13.52;;
68256;SDS011;55069;51.568;4.656;2023-02-13T16:17:54;22.23;;;13.20;;
68256;SDS011;55069;51.568;4.656;2023-02-13T16:20:21;22.55;;;13.15;;
68256;SDS011;55069;51.568;4.656;2023-02-13T16:25:41;21.88;;;12.80;;
68256;SDS011;55069;51.568;4.656;2023-02-13T16:28:17;25.00;;;13.80;;
68256;SDS011;55069;51.568;4.656;2023-02-13T16:30:58;22.08;;;13.80;;
68256;SDS011;55069;51.568;4.656;2023-02-13T16:33:29;22.92;;;13.77;;
68256;SDS011;55069;51.568;4.656;2023-02-13T16:38:56;26.77;;;13.30;;
68256;SDS011;55069;51.568;4.656;2023-02-13T16:49:01;24.42;;;13.55;;
68256;SDS011;55069;51.568;4.656;2023-02-13T16:51:37;24.50;;;13.70;;
68256;SDS011;55069;51.568;4.656;2023-02-13T16:54:35;20.80;;;12.55;;
68256;SDS011;55069;51.568;4.656;2023-02-13T17:04:45;22.40;;;13.07;;
68256;SDS011;55069;51.568;4.656;2023-02-13T17:07:32;29.52;;;14.35;;
68256;SDS011;55069;51.568;4.656;2023-02-13T17:10:00;26.20;;;14.47;;
68256;SDS011;55069;51.568;4.656;2023-02-13T17:12:29;21.25;;;13.25;;
68256;SDS011;55069;51.568;4.656;2023-02-13T17:14:58;21.83;;;13.85;;
68256;SDS011;55069;51.568;4.656;2023-02-13T17:17:28;22.45;;;13.75;;
68256;SDS011;55069;51.568;4.656;2023-02-13T17:19:55;23.75;;;14.05;;
68256;SDS011;55069;51.568;4.656;2023-02-13T17:24:50;22.55;;;13.75;;
68256;SDS011;55069;51.568;4.656;2023-02-13T17:27:15;29.33;;;14.43;;
68256;SDS011;55069;51.568;4.656;2023-02-13T17:29:41;25.93;;;14.80;;
68256;SDS011;55069;51.568;4.656;2023-02-13T17:32:07;25.90;;;14.80;;
68256;SDS011;55069;51.568;4.656;2023-02-13T17:34:38;28.92;;;14.85;;
68256;SDS011;55069;51.568;4.656;2023-02-13T17:37:07;24.73;;;14.07;;
68256;SDS011;55069;51.568;4.656;2023-02-13T17:39:40;27.48;;;14.20;;
68256;SDS011;55069;51.568;4.656;2023-02-13T17:42:08;25.50;;;14.37;;
68256;SDS011;55069;51.568;4.656;2023-02-13T17:44:39;29.20;;;14.95;;
68256;SDS011;55069;51.568;4.656;2023-02-13T17:47:04;26.50;;;14.90;;
68256;SDS011;55069;51.568;4.656;2023-02-13T17:49:30;24.73;;;14.77;;
68256;SDS011;55069;51.568;4.656;2023-02-13T17:51:55;26.77;;;14.83;;
68256;SDS011;55069;51.568;4.656;2023-02-13T17:54:21;27.20;;;15.73;;